Time;durP1;ratioP1;P1;durP2;ratioP2;P2;SDS_P1;SDS_P2;PMS_P1;PMS_P2;Temp;Humidity;BMP_temperature;BMP_pressure;BME280_temperature;BME280_humidity;BME280_pressure;Samples;Min_cycle;Max_cycle;Signal;HPM_P1;HPM_P2
2023/06/04 00:00:34;;;;;;;0.70;0.70;;;;;;;22.12;30.29;101040.66;4556996;28;20045;-63
2023/06/04 00:02:45;;;;;;;1.10;0.80;;;;;;;22.26;29.98;101073.91;4556822;28;20070;-62
2023/06/04 00:04:56;;;;;;;0.75;0.75;;;;;;;22.27;30.10;101064.91;4557837;28;20024;-62
2023/06/04 00:07:06;;;;;;;0.80;0.80;;;;;;;22.23;29.91;101066.00;4557548;28;20579;-63
2023/06/04 00:09:17;;;;;;;0.70;0.70;;;;;;;22.25;29.59;101066.50;4557175;28;20116;-63
2023/06/04 00:11:27;;;;;;;1.23;0.80;;;;;;;22.11;29.63;101041.88;4556320;28;20052;-63
2023/06/04 00:13:38;;;;;;;0.95;0.82;;;;;;;22.17;29.54;101049.00;4557226;28;20115;-65
2023/06/04 00:15:48;;;;;;;0.77;0.70;;;;;;;22.21;29.50;101055.69;4555695;28;20021;-63
2023/06/04 00:17:59;;;;;;;0.70;0.70;;;;;;;22.25;29.71;101060.75;4556769;28;20094;-62
2023/06/04 00:20:10;;;;;;;0.80;0.68;;;;;;;22.25;29.68;101061.56;4556576;28;20918;-62
2023/06/04 00:22:21;;;;;;;0.77;0.70;;;;;;;22.23;29.79;101057.38;4557263;28;20132;-63
2023/06/04 00:24:31;;;;;;;0.77;0.63;;;;;;;22.22;29.91;101059.41;4539855;28;20409;-63
2023/06/04 00:26:42;;;;;;;0.77;0.60;;;;;;;22.25;30.13;101066.50;4557767;28;20485;-64
2023/06/04 00:28:54;;;;;;;0.70;0.70;;;;;;;22.23;30.10;101057.38;4558203;28;20036;-63
2023/06/04 00:31:08;;;;;;;0.80;0.80;;;;;;;22.08;29.60;101042.59;4556585;28;20025;-64
2023/06/04 00:33:18;;;;;;;0.90;0.70;;;;;;;22.20;29.53;101065.53;4555260;28;20040;-62
2023/06/04 00:35:29;;;;;;;0.90;0.80;;;;;;;22.21;30.16;101067.19;4557267;28;20028;-63
2023/06/04 00:37:39;;;;;;;0.95;0.70;;;;;;;22.18;29.78;101058.50;4558045;28;20661;-63
2023/06/04 00:39:50;;;;;;;1.50;0.80;;;;;;;22.18;29.85;101064.25;4556610;28;20033;-61
2023/06/04 00:42:01;;;;;;;0.80;0.80;;;;;;;22.19;30.08;101068.78;4537510;28;20037;-62
2023/06/04 00:44:11;;;;;;;0.70;0.70;;;;;;;22.17;29.65;101063.41;4521652;28;20870;-62
2023/06/04 00:46:26;;;;;;;0.88;0.70;;;;;;;22.07;29.85;101040.09;4539317;28;20433;-62
2023/06/04 00:48:38;;;;;;;0.80;0.68;;;;;;;22.18;30.22;101061.38;4554172;28;20149;-61
2023/06/04 00:50:49;;;;;;;0.60;0.60;;;;;;;22.15;30.17;101062.91;4555513;28;20760;-61
2023/06/04 00:52:59;;;;;;;0.95;0.60;;;;;;;22.16;30.61;101060.88;4558529;28;20098;-61
2023/06/04 00:55:10;;;;;;;0.60;0.60;;;;;;;22.13;30.08;101058.75;4557031;28;20086;-62
2023/06/04 00:57:22;;;;;;;1.10;0.80;;;;;;;22.17;30.32;101066.28;4557630;28;20561;-61
2023/06/04 00:59:33;;;;;;;0.68;0.65;;;;;;;22.18;30.19;101067.13;4537497;28;20028;-61
2023/06/04 01:01:53;;;;;;;0.93;0.90;;;;;;;22.18;29.79;101070.00;4557585;28;20143;-61
2023/06/04 01:04:06;;;;;;;0.70;0.70;;;;;;;22.12;30.13;101049.28;4556039;28;20032;-62
2023/06/04 01:06:34;;;;;;;0.73;0.70;;;;;;;22.17;29.71;101059.66;4555999;28;20044;-62
2023/06/04 01:08:44;;;;;;;;;;;;;;;22.17;29.65;101059.66;4555224;28;20032;-61
2023/06/04 01:10:55;;;;;;;1.00;0.82;;;;;;;22.11;29.61;101039.00;4539823;28;19920;-61
2023/06/04 01:13:06;;;;;;;1.08;0.90;;;;;;;22.14;29.49;101044.00;4527625;28;20052;-61
2023/06/04 01:15:16;;;;;;;0.80;0.75;;;;;;;22.13;29.62;101038.63;4526604;28;20111;-62
2023/06/04 01:17:41;;;;;;;1.30;0.80;;;;;;;22.14;29.21;101055.50;4521321;28;20076;-61
2023/06/04 01:20:00;;;;;;;0.90;0.90;;;;;;;22.15;29.35;101056.34;4555672;28;20040;-62
2023/06/04 01:22:20;;;;;;;0.93;0.85;;;;;;;22.15;29.80;101056.34;4537026;28;20032;-61
2023/06/04 01:24:36;;;;;;;0.98;0.85;;;;;;;22.14;29.85;101058.38;4554094;28;20036;-61
2023/06/04 01:26:48;;;;;;;1.02;0.93;;;;;;;22.12;30.05;101055.03;4528810;28;20657;-62
2023/06/04 01:29:00;;;;;;;1.00;0.90;;;;;;;22.12;29.86;101057.91;4555252;28;20115;-61
2023/06/04 01:31:12;;;;;;;0.98;0.88;;;;;;;22.07;29.67;101043.78;4539384;28;20037;-60
2023/06/04 01:33:23;;;;;;;1.00;0.90;;;;;;;22.13;29.95;101055.88;4539275;28;20033;-61
2023/06/04 01:35:33;;;;;;;1.08;0.93;;;;;;;22.12;29.91;101052.16;4538539;28;20484;-61
2023/06/04 01:37:44;;;;;;;1.52;0.93;;;;;;;22.08;29.47;101048.34;4557240;28;20032;-61
2023/06/04 01:39:54;;;;;;;0.93;0.80;;;;;;;22.08;29.80;101051.22;4553855;28;20116;-61
2023/06/04 01:42:05;;;;;;;0.95;0.90;;;;;;;22.08;29.50;101054.09;4555537;28;20126;-61
2023/06/04 01:44:15;;;;;;;0.80;0.77;;;;;;;22.10;29.34;101054.56;4554312;28;20052;-62
2023/06/04 01:46:26;;;;;;;0.70;0.70;;;;;;;22.11;29.48;101056.25;4540200;28;20974;-61
2023/06/04 01:48:37;;;;;;;1.15;0.77;;;;;;;21.94;29.15;101032.72;4556193;28;20028;-62
2023/06/04 01:50:47;;;;;;;0.80;0.80;;;;;;;22.07;29.28;101055.28;4554670;28;20047;-61
2023/06/04 01:52:58;;;;;;;1.58;0.90;;;;;;;22.08;29.31;101056.97;4553717;28;20047;-61
2023/06/04 01:55:14;;;;;;;0.68;0.68;;;;;;;22.08;29.22;101056.13;4519863;28;20339;-61
2023/06/04 01:57:25;;;;;;;1.27;0.90;;;;;;;22.07;29.42;101058.16;4555674;28;20039;-61
2023/06/04 01:59:36;;;;;;;0.70;0.70;;;;;;;21.97;30.01;101037.75;4541183;28;20091;-61
2023/06/04 02:01:46;;;;;;;0.70;0.70;;;;;;;22.04;29.71;101056.03;4554540;28;20083;-62
2023/06/04 02:03:57;;;;;;;1.02;0.80;;;;;;;22.03;29.72;101057.25;4557222;28;20761;-61
2023/06/04 02:06:08;;;;;;;0.98;0.90;;;;;;;22.04;29.59;101053.16;4557447;28;20098;-61
2023/06/04 02:08:21;;;;;;;0.90;0.73;;;;;;;22.03;29.83;101045.75;4537749;28;20025;-62
2023/06/04 02:10:31;;;;;;;1.55;0.90;;;;;;;22.05;29.23;101056.88;4554763;28;20584;-61
2023/06/04 02:12:57;;;;;;;0.80;0.70;;;;;;;22.06;29.02;101052.78;4538858;28;20096;-60
2023/06/04 02:15:10;;;;;;;0.88;0.70;;;;;;;22.05;29.14;101051.97;4539671;28;20087;-61
2023/06/04 02:17:21;;;;;;;0.88;0.80;;;;;;;22.04;28.93;101050.28;4546549;28;20648;-61
2023/06/04 02:19:33;;;;;;;0.90;0.80;;;;;;;22.03;29.40;101050.63;4560867;28;20143;-61
2023/06/04 02:21:44;;;;;;;0.93;0.80;;;;;;;22.02;29.04;101055.53;4559908;28;20598;-61
2023/06/04 02:23:55;;;;;;;0.75;0.70;;;;;;;22.02;29.47;101063.34;4543679;28;20081;-61
2023/06/04 02:26:06;;;;;;;0.60;0.60;;;;;;;21.86;29.22;101040.31;4544669;28;20032;-61
2023/06/04 02:28:16;;;;;;;0.70;0.60;;;;;;;22.02;29.46;101058.41;4544909;28;20037;-61
2023/06/04 02:30:27;;;;;;;0.80;0.70;;;;;;;22.01;29.49;101056.75;4543366;28;20039;-61
2023/06/04 02:32:39;;;;;;;0.63;0.60;;;;;;;22.00;29.22;101060.84;4563308;28;20147;-63
2023/06/04 02:34:49;;;;;;;0.70;0.70;;;;;;;21.99;29.08;101059.16;4561762;28;20060;-61
2023/06/04 02:37:00;;;;;;;0.70;0.70;;;;;;;22.01;29.33;101062.50;4544427;28;20120;-61
2023/06/04 02:39:11;;;;;;;0.60;0.60;;;;;;;22.01;29.71;101062.50;4559836;28;21032;-61
2023/06/04 02:41:23;;;;;;;0.70;0.70;;;;;;;21.98;29.61;101054.63;4545591;28;20115;-60
2023/06/04 02:43:34;;;;;;;1.05;0.60;;;;;;;21.99;30.18;101059.16;4545002;28;20043;-61
2023/06/04 02:45:44;;;;;;;0.60;0.60;;;;;;;21.98;30.47;101060.38;4533815;28;20052;-61
2023/06/04 02:47:55;;;;;;;0.47;0.47;;;;;;;22.01;30.42;101062.50;4546220;28;20064;-62
2023/06/04 02:50:06;;;;;;;0.70;0.60;;;;;;;21.97;30.49;101055.00;4563178;28;20505;-61
2023/06/04 02:52:17;;;;;;;0.60;0.60;;;;;;;22.01;30.00;101068.25;4542101;28;20124;-61
2023/06/04 02:54:27;;;;;;;0.85;0.60;;;;;;;21.96;30.22;101059.88;4545423;28;20065;-61
2023/06/04 02:56:37;;;;;;;0.50;0.50;;;;;;;21.96;29.98;101054.13;4550225;28;20515;-62
2023/06/04 02:58:58;;;;;;;0.60;0.60;;;;;;;21.99;30.05;101067.78;4561130;28;20025;-63
2023/06/04 03:01:17;;;;;;;0.80;0.70;;;;;;;21.96;30.12;101059.88;4561391;28;20039;-63
2023/06/04 03:03:28;;;;;;;0.75;0.60;;;;;;;21.96;29.86;101059.06;4543981;28;20028;-61
2023/06/04 03:05:39;;;;;;;0.95;0.60;;;;;;;21.94;29.95;101056.56;4560907;28;20504;-61
2023/06/04 03:07:50;;;;;;;1.08;0.60;;;;;;;21.95;30.36;101069.72;4561779;28;20055;-61
2023/06/04 03:10:00;;;;;;;0.98;0.88;;;;;;;21.97;29.77;101058.72;4543641;28;20556;-61
2023/06/04 03:12:11;;;;;;;1.02;0.93;;;;;;;21.94;29.98;101056.56;4560597;28;20610;-61
2023/06/04 03:14:23;;;;;;;1.67;0.90;;;;;;;21.95;30.51;101063.97;4542872;28;20095;-62
2023/06/04 03:16:33;;;;;;;0.75;0.75;;;;;;;21.93;30.46;101059.78;4561171;28;20036;-61
2023/06/04 03:18:44;;;;;;;0.88;0.85;;;;;;;21.97;30.44;101064.44;4562100;28;20040;-61
2023/06/04 03:20:55;;;;;;;1.00;0.88;;;;;;;21.93;30.45;101060.63;4561442;28;20032;-61
2023/06/04 03:23:06;;;;;;;1.20;0.90;;;;;;;21.95;30.03;101063.13;4558739;28;20032;-61
2023/06/04 03:25:16;;;;;;;1.08;0.80;;;;;;;21.94;29.82;101070.94;4559286;28;20464;-60
2023/06/04 03:27:27;;;;;;;0.80;0.75;;;;;;;21.92;29.80;101058.97;4536244;28;20036;-61
2023/06/04 03:29:37;;;;;;;1.13;0.63;;;;;;;21.89;29.92;101059.69;4556128;28;20039;-61
2023/06/04 03:31:49;;;;;;;0.70;0.70;;;;;;;21.88;29.83;101055.13;4540888;28;20114;-61
2023/06/04 03:33:59;;;;;;;1.08;0.90;;;;;;;21.88;30.40;101051.44;4541722;28;20499;-61
2023/06/04 03:36:10;;;;;;;1.05;0.80;;;;;;;21.87;30.03;101056.34;4556918;28;20040;-61
2023/06/04 03:38:20;;;;;;;1.13;0.85;;;;;;;21.92;30.21;101064.72;4556041;28;20028;-61
2023/06/04 03:40:31;;;;;;;1.05;0.70;;;;;;;21.94;30.23;101070.94;4538423;28;20519;-61
2023/06/04 03:42:42;;;;;;;0.93;0.70;;;;;;;21.90;30.55;101060.50;4540636;28;20513;-61
2023/06/04 03:44:53;;;;;;;1.30;0.95;;;;;;;21.94;30.15;101067.22;4556824;28;20033;-61
2023/06/04 03:47:05;;;;;;;1.13;0.80;;;;;;;21.90;30.12;101061.34;4540583;28;20171;-62
2023/06/04 03:49:17;;;;;;;1.42;0.93;;;;;;;21.90;30.10;101066.25;4554990;28;20081;-61
2023/06/04 03:51:28;;;;;;;1.05;0.88;;;;;;;21.90;30.56;101060.50;4544622;28;20028;-61
2023/06/04 03:53:39;;;;;;;1.17;0.90;;;;;;;21.90;30.24;101067.09;4559164;28;20513;-61
2023/06/04 03:55:49;;;;;;;1.13;0.88;;;;;;;21.90;30.52;101072.00;4556364;28;20059;-61
2023/06/04 03:57:59;;;;;;;1.05;0.80;;;;;;;21.86;30.16;101071.94;4546179;28;20037;-61
2023/06/04 04:00:12;;;;;;;1.15;0.85;;;;;;;21.89;30.10;101068.31;4542325;28;20156;-61
2023/06/04 04:02:30;;;;;;;1.50;0.70;;;;;;;21.87;30.38;101067.84;4554718;28;20068;-61
2023/06/04 04:04:40;;;;;;;0.57;0.57;;;;;;;21.87;30.45;101067.84;4539036;28;20573;-61
2023/06/04 04:06:52;;;;;;;0.50;0.50;;;;;;;21.90;30.93;101075.72;4540161;28;20033;-61
2023/06/04 04:09:03;;;;;;;0.70;0.68;;;;;;;21.84;30.88;101068.56;4540694;28;20033;-61
2023/06/04 04:11:15;;;;;;;0.65;0.60;;;;;;;21.89;30.74;101065.44;4555905;28;20089;-61
2023/06/04 04:13:26;;;;;;;0.55;0.55;;;;;;;21.88;31.55;101069.50;4538348;28;20127;-61
2023/06/04 04:15:36;;;;;;;0.50;0.50;;;;;;;21.87;31.25;101069.88;4558501;28;20548;-61
2023/06/04 04:17:48;;;;;;;0.65;0.65;;;;;;;21.86;31.40;101063.31;4540269;28;20028;-61
2023/06/04 04:19:59;;;;;;;0.50;0.50;;;;;;;21.81;31.36;101069.31;4541227;28;20120;-61
2023/06/04 04:22:12;;;;;;;0.50;0.50;;;;;;;21.86;31.01;101079.69;4555225;28;20041;-61
2023/06/04 04:24:24;;;;;;;0.38;0.38;;;;;;;21.88;31.44;101075.25;4555860;28;20037;-61
2023/06/04 04:26:35;;;;;;;0.55;0.45;;;;;;;21.88;31.55;101081.00;4557464;28;20024;-61
2023/06/04 04:28:46;;;;;;;0.57;0.57;;;;;;;21.88;31.36;101085.94;4539849;28;20037;-61
2023/06/04 04:30:56;;;;;;;0.45;0.45;;;;;;;21.85;30.79;101081.72;4538553;28;20061;-61
2023/06/04 04:33:07;;;;;;;0.55;0.50;;;;;;;21.86;30.90;101079.69;4541640;28;20127;-61
2023/06/04 04:35:32;;;;;;;0.60;0.60;;;;;;;21.85;31.52;101087.47;4556940;28;20025;-61
2023/06/04 04:37:44;;;;;;;0.50;0.50;;;;;;;21.83;31.45;101084.16;4554362;27;20595;-62
2023/06/04 04:39:55;;;;;;;0.65;0.57;;;;;;;21.87;31.87;101087.94;4525307;28;20747;-61
2023/06/04 04:42:07;;;;;;;0.50;0.50;;;;;;;21.83;31.84;101081.28;4538230;28;20034;-61
2023/06/04 04:44:18;;;;;;;0.85;0.50;;;;;;;21.83;31.57;101087.03;4541505;28;20021;-61
2023/06/04 04:46:28;;;;;;;0.43;0.43;;;;;;;21.84;31.74;101082.94;4558211;28;20047;-61
2023/06/04 04:48:40;;;;;;;0.50;0.50;;;;;;;21.85;31.15;101087.47;4539494;28;20041;-62
2023/06/04 04:50:51;;;;;;;0.63;0.57;;;;;;;21.86;31.53;101082.56;4557717;28;20971;-61
2023/06/04 04:53:02;;;;;;;0.50;0.50;;;;;;;21.85;31.86;101078.03;4559388;28;20044;-64
2023/06/04 04:55:13;;;;;;;0.50;0.50;;;;;;;21.85;31.83;101084.59;4539922;28;20037;-65
2023/06/04 04:57:24;;;;;;;0.85;0.60;;;;;;;21.83;31.81;101078.41;4541779;28;20791;-61
2023/06/04 04:59:37;;;;;;;1.00;0.65;;;;;;;21.84;32.11;101085.81;4521232;28;20076;-61
2023/06/04 05:01:47;;;;;;;0.60;0.60;;;;;;;21.81;31.88;101080.78;4525921;28;20029;-61
2023/06/04 05:03:57;;;;;;;1.02;0.70;;;;;;;21.82;32.03;101076.72;4556310;28;20072;-60
2023/06/04 05:06:08;;;;;;;0.65;0.50;;;;;;;21.69;32.11;101056.97;4538860;28;20588;-64
2023/06/04 05:08:18;;;;;;;0.63;0.60;;;;;;;21.83;31.71;101080.44;4555217;28;20048;-61
2023/06/04 05:10:29;;;;;;;0.70;0.70;;;;;;;21.82;31.92;101079.59;4538814;28;20434;-61
2023/06/04 05:12:51;;;;;;;0.93;0.60;;;;;;;21.72;31.88;101059.94;4538307;28;20037;-61
2023/06/04 05:15:03;;;;;;;0.57;0.57;;;;;;;21.84;32.08;101084.97;4555971;28;20036;-62
2023/06/04 05:17:16;;;;;;;0.60;0.50;;;;;;;21.79;31.97;101074.56;4558285;28;20098;-61
2023/06/04 05:19:27;;;;;;;0.68;0.65;;;;;;;21.80;32.12;101079.09;4539877;28;20033;-61
2023/06/04 05:21:37;;;;;;;0.65;0.50;;;;;;;21.84;32.56;101085.81;4522827;28;20580;-61
2023/06/04 05:23:50;;;;;;;0.60;0.60;;;;;;;21.83;32.11;101087.03;4539748;28;20040;-61
2023/06/04 05:26:06;;;;;;;0.50;0.43;;;;;;;21.81;31.98;101083.66;4540538;28;20241;-62
2023/06/04 05:28:18;;;;;;;0.73;0.50;;;;;;;21.83;32.51;101089.91;4539716;28;20029;-61
2023/06/04 05:30:28;;;;;;;0.50;0.50;;;;;;;21.82;32.35;101081.63;4556627;28;20128;-62
2023/06/04 05:32:40;;;;;;;0.60;0.60;;;;;;;21.83;32.28;101089.06;4540992;28;20063;-61
2023/06/04 05:34:52;;;;;;;0.50;0.50;;;;;;;21.75;32.92;101078.50;4541272;28;20038;-61
2023/06/04 05:37:04;;;;;;;0.60;0.60;;;;;;;21.80;32.26;101087.72;4537230;28;20489;-61
2023/06/04 05:39:14;;;;;;;0.60;0.60;;;;;;;21.79;33.21;101088.94;4537451;28;20029;-62
2023/06/04 05:41:35;;;;;;;0.60;0.60;;;;;;;21.80;32.79;101087.72;4523057;28;20065;-61
2023/06/04 05:43:46;;;;;;;0.82;0.60;;;;;;;21.81;33.02;101085.69;4539594;28;20119;-61
2023/06/04 05:46:00;;;;;;;0.52;0.52;;;;;;;21.71;32.95;101078.38;4537670;28;20029;-61
2023/06/04 05:48:10;;;;;;;1.05;0.68;;;;;;;21.80;33.00;101093.47;4536709;28;20041;-61
2023/06/04 05:50:21;;;;;;;0.50;0.50;;;;;;;21.79;32.41;101097.56;4556085;28;20036;-61
2023/06/04 05:52:36;;;;;;;0.70;0.60;;;;;;;21.75;32.50;101087.13;4557695;28;20509;-61
2023/06/04 05:54:48;;;;;;;0.60;0.60;;;;;;;21.81;33.06;101095.16;4526365;28;20031;-61
2023/06/04 05:56:59;;;;;;;0.80;0.70;;;;;;;21.81;33.46;101094.31;4524201;28;21029;-61
2023/06/04 05:59:10;;;;;;;0.50;0.50;;;;;;;21.78;33.98;101092.19;4555012;28;20032;-61
2023/06/04 06:01:21;;;;;;;0.88;0.60;;;;;;;21.80;33.88;101104.16;4537216;28;20108;-61
2023/06/04 06:03:32;;;;;;;0.70;0.70;;;;;;;21.80;33.59;101102.09;4536764;28;20146;-62
2023/06/04 06:05:43;;;;;;;0.95;0.60;;;;;;;21.79;34.47;101100.44;4526503;28;20124;-61
2023/06/04 06:07:55;;;;;;;0.55;0.50;;;;;;;21.79;34.39;101100.44;4537655;28;20040;-61
2023/06/04 06:10:06;;;;;;;0.60;0.50;;;;;;;21.80;33.81;101104.97;4536222;28;20037;-61
2023/06/04 06:12:18;;;;;;;0.85;0.55;;;;;;;21.81;34.31;101109.53;4536608;28;20156;-62
2023/06/04 06:14:29;;;;;;;0.60;0.55;;;;;;;21.77;34.43;101099.94;4538651;28;20043;-61
2023/06/04 06:16:41;;;;;;;0.80;0.57;;;;;;;21.77;34.80;101093.38;4537455;28;20052;-62
2023/06/04 06:18:52;;;;;;;0.50;0.50;;;;;;;21.81;35.08;101115.28;4518997;28;20041;-61
2023/06/04 06:21:02;;;;;;;0.70;0.60;;;;;;;21.78;35.33;101107.38;4553922;28;20055;-61
2023/06/04 06:23:14;;;;;;;0.65;0.40;;;;;;;21.73;34.98;101096.09;4553760;28;20041;-61
2023/06/04 06:25:27;;;;;;;0.60;0.50;;;;;;;21.82;34.83;101113.22;4535954;28;20033;-61
2023/06/04 06:27:48;;;;;;;0.63;0.60;;;;;;;21.77;34.61;101102.81;4536011;28;20048;-61
2023/06/04 06:29:59;;;;;;;0.55;0.50;;;;;;;21.57;34.45;101075.06;4542455;28;20036;-60
2023/06/04 06:32:10;;;;;;;0.60;0.57;;;;;;;21.80;34.28;101109.91;4553971;28;20631;-61
2023/06/04 06:34:21;;;;;;;0.60;0.60;;;;;;;21.80;33.68;101113.59;4553887;28;20033;-61
2023/06/04 06:36:32;;;;;;;0.80;0.60;;;;;;;21.77;34.24;101114.31;4554330;28;20036;-61
2023/06/04 06:38:43;;;;;;;0.90;0.60;;;;;;;21.79;34.25;101117.66;4554158;28;20062;-61
2023/06/04 06:40:53;;;;;;;1.00;0.60;;;;;;;21.78;33.54;101127.50;4554618;28;20039;-61
2023/06/04 06:43:04;;;;;;;0.32;0.32;;;;;;;21.78;33.37;101127.50;4554246;28;20555;-61
2023/06/04 06:45:15;;;;;;;0.60;0.50;;;;;;;21.78;33.78;101133.25;4537258;28;20044;-60
2023/06/04 06:47:25;;;;;;;0.52;0.52;;;;;;;21.77;33.54;101131.56;4553131;28;20040;-61
2023/06/04 06:49:35;;;;;;;1.15;0.70;;;;;;;21.80;34.50;101142.31;4553884;28;20041;-61
2023/06/04 06:51:46;;;;;;;0.50;0.50;;;;;;;21.79;35.01;101132.03;4552996;28;20064;-61
2023/06/04 06:53:56;;;;;;;1.00;0.57;;;;;;;21.77;35.16;101134.44;4554856;28;20029;-61
2023/06/04 06:56:07;;;;;;;0.55;0.55;;;;;;;21.78;34.99;101136.13;4551838;28;20171;-61
2023/06/04 06:58:17;;;;;;;0.45;0.45;;;;;;;21.80;34.63;101148.06;4552662;28;20116;-61
2023/06/04 07:00:28;;;;;;;1.35;0.60;;;;;;;21.73;35.49;101136.34;4538796;28;20094;-60
2023/06/04 07:02:39;;;;;;;0.65;0.55;;;;;;;21.76;35.32;101135.63;4540128;28;20025;-61
2023/06/04 07:04:49;;;;;;;0.52;0.50;;;;;;;21.80;34.00;101145.19;4525182;28;20045;-61
2023/06/04 07:07:00;;;;;;;0.57;0.57;;;;;;;21.78;34.38;101136.13;4557440;28;20060;-61
2023/06/04 07:09:10;;;;;;;0.55;0.52;;;;;;;21.82;33.52;101145.69;4557547;28;20108;-61
2023/06/04 07:11:21;;;;;;;0.95;0.50;;;;;;;21.79;33.49;101132.03;4556556;28;20141;-61
2023/06/04 07:13:34;;;;;;;0.68;0.63;;;;;;;21.81;32.80;101138.25;4558233;28;20046;-61
2023/06/04 07:15:45;;;;;;;0.63;0.50;;;;;;;21.82;32.39;101147.69;4557949;28;20135;-60
2023/06/04 07:17:55;;;;;;;0.52;0.50;;;;;;;21.82;33.25;101142.81;4558525;28;20033;-63
2023/06/04 07:20:08;;;;;;;0.50;0.50;;;;;;;21.82;32.99;101144.84;4556552;28;20469;-60
2023/06/04 07:22:18;;;;;;;0.93;0.60;;;;;;;21.81;33.52;101143.16;4557669;28;20032;-61
2023/06/04 07:24:28;;;;;;;0.70;0.70;;;;;;;21.78;34.08;101144.75;4557379;28;20600;-62
2023/06/04 07:26:39;;;;;;;0.63;0.50;;;;;;;21.76;34.82;101138.50;4556740;28;20060;-61
2023/06/04 07:28:50;;;;;;;0.50;0.50;;;;;;;21.80;34.62;101144.38;4556835;28;20029;-61
2023/06/04 07:31:00;;;;;;;1.00;0.70;;;;;;;21.83;34.52;101147.38;4558919;28;20403;-61
2023/06/04 07:33:11;;;;;;;0.57;0.55;;;;;;;21.80;34.06;101144.38;4557526;28;20123;-61
2023/06/04 07:35:21;;;;;;;0.60;0.60;;;;;;;21.60;33.74;101108.81;4558288;28;20048;-61
2023/06/04 07:37:32;;;;;;;0.65;0.63;;;;;;;21.80;34.18;101139.44;4557821;28;20041;-61
2023/06/04 07:39:42;;;;;;;0.55;0.55;;;;;;;21.81;33.94;101134.53;4557069;28;20053;-60
2023/06/04 07:41:53;;;;;;;1.35;0.70;;;;;;;21.80;34.52;101133.69;4538805;28;20059;-61
2023/06/04 07:44:04;;;;;;;0.98;0.70;;;;;;;21.81;33.89;101138.25;4556171;28;20063;-60
2023/06/04 07:46:18;;;;;;;0.73;0.70;;;;;;;21.81;34.21;101141.13;4557802;28;20114;-59
2023/06/04 07:48:31;;;;;;;1.13;0.73;;;;;;;21.83;34.38;101137.91;4556843;28;20037;-60
2023/06/04 07:50:42;;;;;;;0.70;0.57;;;;;;;21.80;34.11;101142.31;4557038;28;20048;-60
2023/06/04 07:52:52;;;;;;;0.77;0.70;;;;;;;21.80;34.46;101145.19;4558113;28;20523;-60
2023/06/04 07:55:03;;;;;;;0.80;0.70;;;;;;;21.84;34.27;101149.03;4556638;28;20040;-60
2023/06/04 07:57:13;;;;;;;0.60;0.60;;;;;;;21.80;33.84;101139.44;4558330;28;20025;-60
2023/06/04 07:59:24;;;;;;;0.70;0.70;;;;;;;21.78;33.69;101141.88;4556156;28;20074;-60
2023/06/04 08:01:34;;;;;;;0.60;0.60;;;;;;;21.82;33.53;101151.44;4557294;28;20119;-60
2023/06/04 08:03:45;;;;;;;0.80;0.80;;;;;;;21.82;33.12;101157.16;4557747;28;20568;-61
2023/06/04 08:05:55;;;;;;;0.98;0.70;;;;;;;21.83;32.54;101146.53;4557484;28;20048;-61
2023/06/04 08:08:06;;;;;;;0.70;0.70;;;;;;;21.81;32.52;101144.00;4541425;28;20068;-61
2023/06/04 08:10:16;;;;;;;0.68;0.68;;;;;;;21.82;32.37;101145.69;4556006;28;20111;-61
2023/06/04 08:12:26;;;;;;;1.17;0.80;;;;;;;21.82;32.55;101145.69;4556893;28;20526;-60
2023/06/04 08:14:37;;;;;;;1.00;0.70;;;;;;;21.83;32.28;101149.41;4557997;28;20032;-61
2023/06/04 08:16:47;;;;;;;0.70;0.70;;;;;;;21.84;31.84;101142.44;4557409;28;20036;-60
2023/06/04 08:18:58;;;;;;;0.93;0.70;;;;;;;21.84;32.86;101145.31;4557151;28;20120;-61
2023/06/04 08:21:11;;;;;;;0.98;0.70;;;;;;;21.73;32.60;101121.97;4557701;28;20043;-61
2023/06/04 08:23:21;;;;;;;0.63;0.63;;;;;;;21.68;32.20;101113.59;4558297;28;20028;-61
2023/06/04 08:25:33;;;;;;;0.70;0.63;;;;;;;21.83;33.00;101135.88;4556175;28;20037;-60
2023/06/04 08:27:43;;;;;;;0.68;0.50;;;;;;;21.83;32.85;101141.63;4556692;28;20609;-60
2023/06/04 08:29:54;;;;;;;0.90;0.70;;;;;;;21.83;32.38;101144.50;4556321;28;20802;-61
2023/06/04 08:32:05;;;;;;;0.80;0.70;;;;;;;21.82;32.80;101139.94;4555750;28;20099;-61
2023/06/04 08:34:15;;;;;;;0.50;0.50;;;;;;;21.81;33.41;101148.91;4556681;28;20039;-61
2023/06/04 08:36:27;;;;;;;0.85;0.70;;;;;;;21.83;34.24;101140.78;4558474;28;20048;-60
2023/06/04 08:38:38;;;;;;;0.98;0.50;;;;;;;21.83;33.57;101147.38;4540853;28;20167;-61
2023/06/04 08:40:52;;;;;;;0.68;0.68;;;;;;;21.82;32.67;101145.69;4556528;28;20025;-60
2023/06/04 08:43:04;;;;;;;0.68;0.60;;;;;;;21.85;33.07;101152.75;4556326;28;20027;-61
2023/06/04 08:45:17;;;;;;;0.60;0.60;;;;;;;21.84;33.25;101146.16;4557635;28;20024;-60
2023/06/04 08:47:29;;;;;;;3.25;0.80;;;;;;;21.86;32.48;101152.41;4539448;28;20025;-60
2023/06/04 08:49:40;;;;;;;1.05;0.65;;;;;;;21.85;31.83;101150.69;4557001;28;20043;-61
2023/06/04 08:51:51;;;;;;;0.88;0.65;;;;;;;21.85;32.17;101144.94;4539217;28;21574;-60
2023/06/04 08:54:03;;;;;;;0.50;0.50;;;;;;;21.87;32.57;101151.19;4540253;28;20044;-60
2023/06/04 08:56:13;;;;;;;0.70;0.70;;;;;;;21.86;32.77;101149.53;4556769;28;20045;-60
2023/06/04 08:58:25;;;;;;;1.17;0.70;;;;;;;21.85;34.32;101150.69;4557587;28;20231;-61
2023/06/04 09:00:35;;;;;;;0.68;0.68;;;;;;;21.83;33.78;101141.63;4555517;28;20111;-60
2023/06/04 09:02:47;;;;;;;0.93;0.63;;;;;;;21.88;33.44;101149.97;4556119;28;20298;-60
2023/06/04 09:04:58;;;;;;;0.60;0.50;;;;;;;21.86;32.46;101149.53;4557646;28;20172;-61
2023/06/04 09:07:11;;;;;;;0.82;0.60;;;;;;;21.89;32.63;101159.44;4556099;28;20028;-61
2023/06/04 09:09:23;;;;;;;0.70;0.57;;;;;;;21.76;32.93;101132.78;4557073;28;20067;-61
2023/06/04 09:11:37;;;;;;;0.77;0.63;;;;;;;21.86;31.76;101158.13;4556521;28;20740;-61
2023/06/04 09:13:49;;;;;;;1.15;0.70;;;;;;;21.87;32.14;101142.56;4555767;28;20055;-61
2023/06/04 09:16:04;;;;;;;1.17;0.75;;;;;;;21.89;31.55;101151.66;4555884;28;20181;-61
2023/06/04 09:18:14;;;;;;;0.70;0.70;;;;;;;21.90;31.69;101153.31;4555617;28;20114;-61
2023/06/04 09:20:25;;;;;;;0.68;0.60;;;;;;;21.92;31.79;101155.84;4556082;28;20865;-61
2023/06/04 09:22:37;;;;;;;0.60;0.57;;;;;;;21.92;31.90;101150.94;4556224;28;20156;-61
2023/06/04 09:24:52;;;;;;;1.15;0.70;;;;;;;21.92;31.35;101156.69;4553686;28;20029;-61
2023/06/04 09:27:09;;;;;;;0.88;0.70;;;;;;;21.81;31.92;101132.53;4537727;28;20040;-61
2023/06/04 09:29:20;;;;;;;0.73;0.70;;;;;;;21.73;32.21;101124.00;4555958;28;20020;-61
2023/06/04 09:31:36;;;;;;;1.38;0.70;;;;;;;21.94;32.23;101160.03;4555522;28;20033;-61
2023/06/04 09:33:50;;;;;;;1.38;0.75;;;;;;;21.93;31.99;101146.00;4556150;28;20037;-61
2023/06/04 09:36:00;;;;;;;1.17;0.80;;;;;;;21.94;31.83;101147.69;4555999;28;20110;-60
2023/06/04 09:38:11;;;;;;;1.05;0.60;;;;;;;21.94;31.40;101139.06;4554911;28;20043;-60
2023/06/04 09:40:22;;;;;;;0.90;0.80;;;;;;;21.96;30.91;101139.56;4553446;28;20071;-61
2023/06/04 09:42:43;;;;;;;1.80;0.90;;;;;;;21.84;30.92;101117.44;4556237;28;20662;-61
2023/06/04 09:44:53;;;;;;;0.60;0.60;;;;;;;21.94;30.46;101137.03;4554000;28;20543;-61
2023/06/04 09:47:04;;;;;;;0.73;0.68;;;;;;;21.94;31.08;101124.69;4554258;28;20078;-61
2023/06/04 09:49:15;;;;;;;0.82;0.60;;;;;;;21.92;31.07;101130.81;4555659;28;20039;-61
2023/06/04 09:51:26;;;;;;;0.50;0.50;;;;;;;21.98;30.97;101137.97;4555094;28;20087;-61
2023/06/04 09:53:37;;;;;;;0.70;0.70;;;;;;;21.97;31.94;101139.19;4538252;28;20068;-61
2023/06/04 09:56:03;;;;;;;0.73;0.60;;;;;;;21.98;31.44;101137.97;4554635;28;20040;-61
2023/06/04 09:58:14;;;;;;;0.55;0.47;;;;;;;21.99;30.08;101145.38;4555140;28;20051;-61
2023/06/04 10:00:28;;;;;;;0.52;0.52;;;;;;;21.95;30.60;101127.22;4555545;28;20799;-61
2023/06/04 10:02:38;;;;;;;0.93;0.60;;;;;;;21.87;30.43;101119.56;4554847;28;20168;-61
2023/06/04 10:05:02;;;;;;;0.75;0.70;;;;;;;21.98;30.10;101135.09;4555779;28;20479;-60
2023/06/04 10:07:13;;;;;;;0.73;0.68;;;;;;;21.95;29.79;101135.84;4556620;28;20040;-64
2023/06/04 10:09:25;;;;;;;0.70;0.60;;;;;;;21.96;29.83;101128.88;4556638;28;20033;-63
2023/06/04 10:11:56;;;;;;;0.50;0.50;;;;;;;21.98;29.83;101132.22;4554311;28;20040;-62